sensor_id;sensor_type;location;lat;lon;timestamp;P1;durP1;ratioP1;P2;durP2;ratioP2
15340;SDS011;7770;52.158;5.372;2023-05-14T00:02:21;31.90;;;28.53;;
15340;SDS011;7770;52.158;5.372;2023-05-14T00:05:08;31.50;;;28.13;;
15340;SDS011;7770;52.158;5.372;2023-05-14T00:07:54;30.73;;;27.53;;
15340;SDS011;7770;52.158;5.372;2023-05-14T00:10:40;32.30;;;28.60;;
15340;SDS011;7770;52.158;5.372;2023-05-14T00:13:26;30.67;;;27.57;;
15340;SDS011;7770;52.158;5.372;2023-05-14T00:16:12;32.37;;;26.63;;
15340;SDS011;7770;52.158;5.372;2023-05-14T00:18:58;29.90;;;26.57;;
15340;SDS011;7770;52.158;5.372;2023-05-14T00:21:46;29.83;;;26.70;;
15340;SDS011;7770;52.158;5.372;2023-05-14T00:24:33;30.53;;;27.23;;
15340;SDS011;7770;52.158;5.372;2023-05-14T00:27:19;31.27;;;27.90;;
15340;SDS011;7770;52.158;5.372;2023-05-14T00:30:05;30.23;;;27.10;;
15340;SDS011;7770;52.158;5.372;2023-05-14T00:32:52;29.77;;;26.73;;
15340;SDS011;7770;52.158;5.372;2023-05-14T00:35:38;30.27;;;26.37;;
15340;SDS011;7770;52.158;5.372;2023-05-14T00:38:24;28.77;;;25.77;;
15340;SDS011;7770;52.158;5.372;2023-05-14T00:41:12;28.47;;;25.63;;
15340;SDS011;7770;52.158;5.372;2023-05-14T00:43:58;28.47;;;24.67;;
15340;SDS011;7770;52.158;5.372;2023-05-14T00:46:44;28.70;;;25.57;;
15340;SDS011;7770;52.158;5.372;2023-05-14T00:49:30;28.53;;;25.60;;
15340;SDS011;7770;52.158;5.372;2023-05-14T00:52:16;28.07;;;24.63;;
15340;SDS011;7770;52.158;5.372;2023-05-14T00:55:03;27.70;;;24.80;;
15340;SDS011;7770;52.158;5.372;2023-05-14T00:57:51;27.40;;;24.50;;
15340;SDS011;7770;52.158;5.372;2023-05-14T01:00:39;28.67;;;24.50;;
15340;SDS011;7770;52.158;5.372;2023-05-14T01:03:26;26.67;;;23.80;;
15340;SDS011;7770;52.158;5.372;2023-05-14T01:06:21;28.83;;;24.23;;
15340;SDS011;7770;52.158;5.372;2023-05-14T01:12:18;28.50;;;25.00;;
15340;SDS011;7770;52.158;5.372;2023-05-14T01:15:20;27.83;;;24.47;;
15340;SDS011;7770;52.158;5.372;2023-05-14T01:18:10;27.20;;;24.40;;
15340;SDS011;7770;52.158;5.372;2023-05-14T01:20:59;28.57;;;24.57;;
15340;SDS011;7770;52.158;5.372;2023-05-14T01:23:46;26.90;;;23.73;;
15340;SDS011;7770;52.158;5.372;2023-05-14T01:26:32;27.37;;;24.00;;
15340;SDS011;7770;52.158;5.372;2023-05-14T01:29:20;26.13;;;23.33;;
15340;SDS011;7770;52.158;5.372;2023-05-14T01:32:07;26.80;;;24.03;;
15340;SDS011;7770;52.158;5.372;2023-05-14T01:34:54;26.97;;;23.83;;
15340;SDS011;7770;52.158;5.372;2023-05-14T01:37:42;30.00;;;25.13;;
15340;SDS011;7770;52.158;5.372;2023-05-14T01:40:30;29.47;;;24.77;;
15340;SDS011;7770;52.158;5.372;2023-05-14T01:43:17;28.40;;;25.37;;
15340;SDS011;7770;52.158;5.372;2023-05-14T01:46:03;29.27;;;24.67;;
15340;SDS011;7770;52.158;5.372;2023-05-14T01:48:49;27.40;;;24.43;;
15340;SDS011;7770;52.158;5.372;2023-05-14T01:51:35;30.63;;;24.77;;
15340;SDS011;7770;52.158;5.372;2023-05-14T01:54:22;27.03;;;24.10;;
15340;SDS011;7770;52.158;5.372;2023-05-14T01:57:08;28.93;;;24.60;;
15340;SDS011;7770;52.158;5.372;2023-05-14T01:59:54;31.47;;;26.00;;
15340;SDS011;7770;52.158;5.372;2023-05-14T02:02:40;27.57;;;24.67;;
15340;SDS011;7770;52.158;5.372;2023-05-14T02:05:26;28.60;;;25.50;;
15340;SDS011;7770;52.158;5.372;2023-05-14T02:08:12;28.80;;;25.70;;
15340;SDS011;7770;52.158;5.372;2023-05-14T02:10:58;30.30;;;27.00;;
15340;SDS011;7770;52.158;5.372;2023-05-14T02:13:44;31.57;;;25.47;;
15340;SDS011;7770;52.158;5.372;2023-05-14T02:16:30;32.83;;;25.47;;
15340;SDS011;7770;52.158;5.372;2023-05-14T02:19:16;28.17;;;25.33;;
15340;SDS011;7770;52.158;5.372;2023-05-14T02:22:02;30.10;;;25.67;;
15340;SDS011;7770;52.158;5.372;2023-05-14T02:24:48;33.10;;;26.13;;
15340;SDS011;7770;52.158;5.372;2023-05-14T02:27:36;29.37;;;26.17;;
15340;SDS011;7770;52.158;5.372;2023-05-14T02:30:22;28.77;;;25.23;;
15340;SDS011;7770;52.158;5.372;2023-05-14T02:33:08;29.87;;;25.40;;
15340;SDS011;7770;52.158;5.372;2023-05-14T02:35:54;29.37;;;26.17;;
15340;SDS011;7770;52.158;5.372;2023-05-14T02:38:40;33.30;;;25.80;;
15340;SDS011;7770;52.158;5.372;2023-05-14T02:41:26;32.60;;;25.60;;
15340;SDS011;7770;52.158;5.372;2023-05-14T02:44:12;30.63;;;25.47;;
15340;SDS011;7770;52.158;5.372;2023-05-14T02:46:58;30.60;;;25.73;;
15340;SDS011;7770;52.158;5.372;2023-05-14T02:49:44;30.57;;;25.73;;
15340;SDS011;7770;52.158;5.372;2023-05-14T02:52:30;30.67;;;26.10;;
15340;SDS011;7770;52.158;5.372;2023-05-14T02:55:16;29.03;;;25.20;;
15340;SDS011;7770;52.158;5.372;2023-05-14T02:58:02;28.40;;;24.63;;
15340;SDS011;7770;52.158;5.372;2023-05-14T03:00:48;29.53;;;25.70;;
15340;SDS011;7770;52.158;5.372;2023-05-14T03:03:35;29.97;;;26.07;;
15340;SDS011;7770;52.158;5.372;2023-05-14T03:06:22;29.67;;;25.20;;
15340;SDS011;7770;52.158;5.372;2023-05-14T03:09:08;30.07;;;25.70;;
15340;SDS011;7770;52.158;5.372;2023-05-14T03:11:55;29.17;;;25.40;;
15340;SDS011;7770;52.158;5.372;2023-05-14T03:14:41;29.60;;;26.07;;
15340;SDS011;7770;52.158;5.372;2023-05-14T03:17:27;28.50;;;25.40;;
15340;SDS011;7770;52.158;5.372;2023-05-14T03:20:13;28.53;;;24.93;;
15340;SDS011;7770;52.158;5.372;2023-05-14T03:22:59;30.60;;;26.43;;
15340;SDS011;7770;52.158;5.372;2023-05-14T03:25:45;30.30;;;25.33;;
15340;SDS011;7770;52.158;5.372;2023-05-14T03:28:31;30.57;;;26.77;;
15340;SDS011;7770;52.158;5.372;2023-05-14T03:31:18;29.97;;;26.10;;
15340;SDS011;7770;52.158;5.372;2023-05-14T03:34:04;32.23;;;26.63;;
15340;SDS011;7770;52.158;5.372;2023-05-14T03:36:50;31.03;;;26.23;;
15340;SDS011;7770;52.158;5.372;2023-05-14T03:39:37;32.27;;;25.80;;
15340;SDS011;7770;52.158;5.372;2023-05-14T03:42:23;29.73;;;25.83;;
15340;SDS011;7770;52.158;5.372;2023-05-14T03:45:09;32.47;;;26.37;;
15340;SDS011;7770;52.158;5.372;2023-05-14T03:47:55;31.63;;;26.27;;
15340;SDS011;7770;52.158;5.372;2023-05-14T03:50:41;33.93;;;26.67;;
15340;SDS011;7770;52.158;5.372;2023-05-14T03:53:27;28.27;;;25.17;;
15340;SDS011;7770;52.158;5.372;2023-05-14T03:56:13;29.63;;;25.87;;
15340;SDS011;7770;52.158;5.372;2023-05-14T03:58:59;32.57;;;25.20;;
15340;SDS011;7770;52.158;5.372;2023-05-14T04:01:45;28.77;;;24.67;;
15340;SDS011;7770;52.158;5.372;2023-05-14T04:04:31;30.13;;;25.23;;
15340;SDS011;7770;52.158;5.372;2023-05-14T04:07:17;31.33;;;25.90;;
15340;SDS011;7770;52.158;5.372;2023-05-14T04:10:03;28.53;;;25.10;;
15340;SDS011;7770;52.158;5.372;2023-05-14T04:12:50;30.10;;;25.10;;
15340;SDS011;7770;52.158;5.372;2023-05-14T04:15:36;28.70;;;24.70;;
15340;SDS011;7770;52.158;5.372;2023-05-14T04:18:23;31.23;;;25.17;;
15340;SDS011;7770;52.158;5.372;2023-05-14T04:21:10;29.40;;;24.73;;
15340;SDS011;7770;52.158;5.372;2023-05-14T04:23:56;27.73;;;24.30;;
15340;SDS011;7770;52.158;5.372;2023-05-14T04:26:42;29.80;;;24.20;;
15340;SDS011;7770;52.158;5.372;2023-05-14T04:29:28;31.53;;;24.60;;
15340;SDS011;7770;52.158;5.372;2023-05-14T04:32:15;28.93;;;25.00;;
15340;SDS011;7770;52.158;5.372;2023-05-14T04:35:02;26.97;;;23.23;;
15340;SDS011;7770;52.158;5.372;2023-05-14T04:37:48;27.63;;;23.73;;
15340;SDS011;7770;52.158;5.372;2023-05-14T04:40:34;28.97;;;23.57;;
15340;SDS011;7770;52.158;5.372;2023-05-14T04:43:20;26.40;;;22.87;;
15340;SDS011;7770;52.158;5.372;2023-05-14T04:46:06;25.93;;;23.23;;
15340;SDS011;7770;52.158;5.372;2023-05-14T04:48:53;28.03;;;21.70;;
15340;SDS011;7770;52.158;5.372;2023-05-14T04:51:40;26.63;;;21.70;;
15340;SDS011;7770;52.158;5.372;2023-05-14T04:54:26;25.77;;;21.80;;
15340;SDS011;7770;52.158;5.372;2023-05-14T04:57:12;27.93;;;21.93;;
15340;SDS011;7770;52.158;5.372;2023-05-14T04:59:58;25.03;;;20.80;;
15340;SDS011;7770;52.158;5.372;2023-05-14T05:02:44;27.33;;;20.43;;
15340;SDS011;7770;52.158;5.372;2023-05-14T05:05:30;24.17;;;20.00;;
15340;SDS011;7770;52.158;5.372;2023-05-14T05:08:16;21.67;;;18.90;;
15340;SDS011;7770;52.158;5.372;2023-05-14T05:11:02;24.13;;;19.23;;
15340;SDS011;7770;52.158;5.372;2023-05-14T05:13:49;21.57;;;19.27;;
15340;SDS011;7770;52.158;5.372;2023-05-14T05:16:35;23.27;;;19.37;;
15340;SDS011;7770;52.158;5.372;2023-05-14T05:19:21;24.13;;;18.77;;
15340;SDS011;7770;52.158;5.372;2023-05-14T05:22:07;23.20;;;18.63;;
15340;SDS011;7770;52.158;5.372;2023-05-14T05:24:53;22.77;;;18.90;;
15340;SDS011;7770;52.158;5.372;2023-05-14T05:27:39;20.53;;;18.43;;
15340;SDS011;7770;52.158;5.372;2023-05-14T05:30:25;20.47;;;18.27;;
15340;SDS011;7770;52.158;5.372;2023-05-14T05:33:11;20.33;;;18.17;;
15340;SDS011;7770;52.158;5.372;2023-05-14T05:35:57;19.27;;;17.23;;
15340;SDS011;7770;52.158;5.372;2023-05-14T05:38:43;18.30;;;16.50;;
15340;SDS011;7770;52.158;5.372;2023-05-14T05:41:29;19.97;;;16.97;;
15340;SDS011;7770;52.158;5.372;2023-05-14T05:44:15;18.67;;;16.70;;
15340;SDS011;7770;52.158;5.372;2023-05-14T05:47:01;18.80;;;16.83;;
15340;SDS011;7770;52.158;5.372;2023-05-14T05:49:47;17.90;;;16.10;;
15340;SDS011;7770;52.158;5.372;2023-05-14T05:52:33;20.37;;;16.00;;
15340;SDS011;7770;52.158;5.372;2023-05-14T05:55:19;18.07;;;16.00;;
15340;SDS011;7770;52.158;5.372;2023-05-14T05:58:06;19.77;;;16.50;;
15340;SDS011;7770;52.158;5.372;2023-05-14T06:00:52;19.57;;;16.43;;
15340;SDS011;7770;52.158;5.372;2023-05-14T06:03:38;19.77;;;16.10;;
15340;SDS011;7770;52.158;5.372;2023-05-14T06:06:24;17.47;;;15.67;;
15340;SDS011;7770;52.158;5.372;2023-05-14T06:09:10;18.10;;;16.23;;
15340;SDS011;7770;52.158;5.372;2023-05-14T06:11:55;17.80;;;16.00;;
15340;SDS011;7770;52.158;5.372;2023-05-14T06:14:41;17.63;;;15.67;;
15340;SDS011;7770;52.158;5.372;2023-05-14T06:17:27;17.63;;;15.83;;
15340;SDS011;7770;52.158;5.372;2023-05-14T06:20:13;18.87;;;15.93;;
15340;SDS011;7770;52.158;5.372;2023-05-14T06:23:00;19.10;;;15.40;;
15340;SDS011;7770;52.158;5.372;2023-05-14T06:25:45;18.57;;;16.00;;
15340;SDS011;7770;52.158;5.372;2023-05-14T06:28:34;17.50;;;15.70;;
15340;SDS011;7770;52.158;5.372;2023-05-14T06:31:20;19.03;;;15.70;;
15340;SDS011;7770;52.158;5.372;2023-05-14T06:34:06;15.87;;;14.17;;
15340;SDS011;7770;52.158;5.372;2023-05-14T06:36:52;15.90;;;14.30;;
15340;SDS011;7770;52.158;5.372;2023-05-14T06:39:38;19.13;;;15.83;;
15340;SDS011;7770;52.158;5.372;2023-05-14T06:42:24;18.00;;;14.93;;
15340;SDS011;7770;52.158;5.372;2023-05-14T06:45:10;16.37;;;14.67;;
15340;SDS011;7770;52.158;5.372;2023-05-14T06:47:56;17.57;;;15.63;;
15340;SDS011;7770;52.158;5.372;2023-05-14T06:50:43;16.13;;;14.40;;
15340;SDS011;7770;52.158;5.372;2023-05-14T06:53:30;17.23;;;14.47;;
15340;SDS011;7770;52.158;5.372;2023-05-14T06:56:16;18.67;;;14.43;;
15340;SDS011;7770;52.158;5.372;2023-05-14T06:59:02;15.37;;;13.70;;
15340;SDS011;7770;52.158;5.372;2023-05-14T07:01:48;16.30;;;14.60;;
15340;SDS011;7770;52.158;5.372;2023-05-14T07:04:34;16.87;;;15.07;;
15340;SDS011;7770;52.158;5.372;2023-05-14T07:07:20;16.83;;;14.17;;
15340;SDS011;7770;52.158;5.372;2023-05-14T07:10:06;20.83;;;16.07;;
15340;SDS011;7770;52.158;5.372;2023-05-14T07:12:52;18.77;;;16.57;;
15340;SDS011;7770;52.158;5.372;2023-05-14T07:15:38;19.27;;;17.37;;
15340;SDS011;7770;52.158;5.372;2023-05-14T07:18:24;18.30;;;16.37;;
15340;SDS011;7770;52.158;5.372;2023-05-14T07:21:10;19.53;;;17.53;;
15340;SDS011;7770;52.158;5.372;2023-05-14T07:23:57;19.10;;;15.90;;
15340;SDS011;7770;52.158;5.372;2023-05-14T07:26:42;20.23;;;17.10;;
15340;SDS011;7770;52.158;5.372;2023-05-14T07:29:29;19.50;;;16.60;;
15340;SDS011;7770;52.158;5.372;2023-05-14T07:32:15;21.00;;;17.17;;
15340;SDS011;7770;52.158;5.372;2023-05-14T07:35:01;17.60;;;15.97;;
15340;SDS011;7770;52.158;5.372;2023-05-14T07:37:47;18.63;;;16.80;;
15340;SDS011;7770;52.158;5.372;2023-05-14T07:40:33;19.23;;;17.33;;
15340;SDS011;7770;52.158;5.372;2023-05-14T07:43:19;18.97;;;16.63;;
15340;SDS011;7770;52.158;5.372;2023-05-14T07:46:05;17.83;;;16.23;;
15340;SDS011;7770;52.158;5.372;2023-05-14T07:48:51;17.97;;;16.17;;
15340;SDS011;7770;52.158;5.372;2023-05-14T07:51:37;17.00;;;15.50;;
15340;SDS011;7770;52.158;5.372;2023-05-14T07:54:23;17.47;;;15.70;;
15340;SDS011;7770;52.158;5.372;2023-05-14T07:57:09;17.20;;;15.40;;
15340;SDS011;7770;52.158;5.372;2023-05-14T07:59:55;16.90;;;15.30;;
15340;SDS011;7770;52.158;5.372;2023-05-14T08:02:41;17.00;;;15.37;;
15340;SDS011;7770;52.158;5.372;2023-05-14T08:05:27;17.17;;;15.37;;
15340;SDS011;7770;52.158;5.372;2023-05-14T08:08:13;15.50;;;13.93;;
15340;SDS011;7770;52.158;5.372;2023-05-14T08:11:00;15.90;;;14.30;;
15340;SDS011;7770;52.158;5.372;2023-05-14T08:13:47;16.20;;;14.40;;
15340;SDS011;7770;52.158;5.372;2023-05-14T08:16:33;16.73;;;14.93;;
15340;SDS011;7770;52.158;5.372;2023-05-14T08:19:19;15.43;;;13.83;;
15340;SDS011;7770;52.158;5.372;2023-05-14T08:22:05;15.30;;;13.70;;
15340;SDS011;7770;52.158;5.372;2023-05-14T08:24:51;13.90;;;12.40;;
15340;SDS011;7770;52.158;5.372;2023-05-14T08:27:37;12.83;;;11.53;;
15340;SDS011;7770;52.158;5.372;2023-05-14T08:30:24;12.57;;;11.27;;
15340;SDS011;7770;52.158;5.372;2023-05-14T08:33:10;12.80;;;11.40;;
15340;SDS011;7770;52.158;5.372;2023-05-14T08:35:56;12.25;;;10.73;;
15340;SDS011;7770;52.158;5.372;2023-05-14T08:38:44;11.85;;;10.73;;
15340;SDS011;7770;52.158;5.372;2023-05-14T08:41:30;11.52;;;10.40;;
15340;SDS011;7770;52.158;5.372;2023-05-14T08:44:21;12.10;;;10.90;;
15340;SDS011;7770;52.158;5.372;2023-05-14T08:47:17;11.73;;;10.23;;
15340;SDS011;7770;52.158;5.372;2023-05-14T08:50:06;11.55;;;10.27;;
15340;SDS011;7770;52.158;5.372;2023-05-14T08:52:53;12.80;;;9.80;;
15340;SDS011;7770;52.158;5.372;2023-05-14T08:55:39;11.48;;;10.35;;
15340;SDS011;7770;52.158;5.372;2023-05-14T08:58:25;11.07;;;10.00;;
15340;SDS011;7770;52.158;5.372;2023-05-14T09:01:13;13.80;;;10.18;;
15340;SDS011;7770;52.158;5.372;2023-05-14T09:03:58;11.15;;;9.93;;
15340;SDS011;7770;52.158;5.372;2023-05-14T09:06:51;11.65;;;10.18;;
15340;SDS011;7770;52.158;5.372;2023-05-14T09:09:38;13.90;;;9.65;;
15340;SDS011;7770;52.158;5.372;2023-05-14T09:12:25;10.85;;;9.82;;
15340;SDS011;7770;52.158;5.372;2023-05-14T09:15:11;12.48;;;10.40;;
15340;SDS011;7770;52.158;5.372;2023-05-14T09:17:57;11.38;;;9.50;;
15340;SDS011;7770;52.158;5.372;2023-05-14T09:20:43;10.20;;;9.00;;
15340;SDS011;7770;52.158;5.372;2023-05-14T09:23:31;13.23;;;10.02;;
15340;SDS011;7770;52.158;5.372;2023-05-14T09:26:20;11.68;;;10.07;;
15340;SDS011;7770;52.158;5.372;2023-05-14T09:29:12;11.40;;;9.75;;
15340;SDS011;7770;52.158;5.372;2023-05-14T09:31:59;11.13;;;9.93;;
15340;SDS011;7770;52.158;5.372;2023-05-14T09:34:49;13.15;;;9.60;;
15340;SDS011;7770;52.158;5.372;2023-05-14T09:37:35;12.32;;;9.55;;
15340;SDS011;7770;52.158;5.372;2023-05-14T09:40:22;12.77;;;10.00;;
15340;SDS011;7770;52.158;5.372;2023-05-14T09:43:08;10.38;;;8.98;;
15340;SDS011;7770;52.158;5.372;2023-05-14T09:45:54;10.50;;;9.00;;
15340;SDS011;7770;52.158;5.372;2023-05-14T09:48:40;11.43;;;9.48;;
15340;SDS011;7770;52.158;5.372;2023-05-14T09:51:28;9.90;;;8.95;;
15340;SDS011;7770;52.158;5.372;2023-05-14T09:54:16;11.85;;;8.63;;
15340;SDS011;7770;52.158;5.372;2023-05-14T09:57:02;9.65;;;8.57;;
15340;SDS011;7770;52.158;5.372;2023-05-14T09:59:48;10.13;;;8.77;;
15340;SDS011;7770;52.158;5.372;2023-05-14T10:02:35;12.27;;;8.55;;
15340;SDS011;7770;52.158;5.372;2023-05-14T10:05:22;9.68;;;8.73;;
15340;SDS011;7770;52.158;5.372;2023-05-14T10:08:13;12.55;;;8.95;;
15340;SDS011;7770;52.158;5.372;2023-05-14T10:11:12;11.88;;;9.45;;
15340;SDS011;7770;52.158;5.372;2023-05-14T10:14:13;10.43;;;8.85;;
15340;SDS011;7770;52.158;5.372;2023-05-14T10:17:09;11.57;;;7.88;;
15340;SDS011;7770;52.158;5.372;2023-05-14T10:20:02;9.50;;;8.50;;
15340;SDS011;7770;52.158;5.372;2023-05-14T10:22:50;13.35;;;8.95;;
15340;SDS011;7770;52.158;5.372;2023-05-14T10:25:36;12.20;;;8.73;;
15340;SDS011;7770;52.158;5.372;2023-05-14T10:28:23;8.88;;;8.00;;
15340;SDS011;7770;52.158;5.372;2023-05-14T10:31:09;10.82;;;8.50;;
15340;SDS011;7770;52.158;5.372;2023-05-14T10:33:55;10.43;;;8.10;;
15340;SDS011;7770;52.158;5.372;2023-05-14T10:36:41;10.20;;;7.80;;
15340;SDS011;7770;52.158;5.372;2023-05-14T10:42:36;9.43;;;8.07;;
15340;SDS011;7770;52.158;5.372;2023-05-14T10:45:27;9.98;;;7.93;;
15340;SDS011;7770;52.158;5.372;2023-05-14T10:48:14;10.95;;;8.38;;
15340;SDS011;7770;52.158;5.372;2023-05-14T10:51:00;9.73;;;8.68;;
15340;SDS011;7770;52.158;5.372;2023-05-14T10:53:47;9.50;;;8.35;;
15340;SDS011;7770;52.158;5.372;2023-05-14T10:56:33;11.68;;;7.95;;
15340;SDS011;7770;52.158;5.372;2023-05-14T10:59:24;9.25;;;8.27;;
15340;SDS011;7770;52.158;5.372;2023-05-14T11:02:32;12.65;;;8.60;;
15340;SDS011;7770;52.158;5.372;2023-05-14T11:05:21;10.27;;;8.80;;
15340;SDS011;7770;52.158;5.372;2023-05-14T11:08:07;10.25;;;9.07;;
15340;SDS011;7770;52.158;5.372;2023-05-14T11:10:53;11.18;;;9.55;;
15340;SDS011;7770;52.158;5.372;2023-05-14T11:13:40;9.75;;;8.75;;
15340;SDS011;7770;52.158;5.372;2023-05-14T11:16:28;12.20;;;9.02;;
15340;SDS011;7770;52.158;5.372;2023-05-14T11:19:15;10.18;;;8.27;;
15340;SDS011;7770;52.158;5.372;2023-05-14T11:22:06;11.30;;;8.05;;
15340;SDS011;7770;52.158;5.372;2023-05-14T11:24:52;12.05;;;8.82;;
15340;SDS011;7770;52.158;5.372;2023-05-14T11:27:39;10.52;;;8.48;;
15340;SDS011;7770;52.158;5.372;2023-05-14T11:30:27;11.38;;;9.65;;
15340;SDS011;7770;52.158;5.372;2023-05-14T11:33:16;12.15;;;8.70;;
15340;SDS011;7770;52.158;5.372;2023-05-14T11:36:03;12.27;;;8.55;;
15340;SDS011;7770;52.158;5.372;2023-05-14T11:38:49;11.70;;;8.70;;
15340;SDS011;7770;52.158;5.372;2023-05-14T11:41:42;12.85;;;8.88;;
15340;SDS011;7770;52.158;5.372;2023-05-14T11:44:32;14.20;;;9.93;;
15340;SDS011;7770;52.158;5.372;2023-05-14T11:47:19;12.65;;;9.02;;
15340;SDS011;7770;52.158;5.372;2023-05-14T11:50:06;11.20;;;8.88;;
15340;SDS011;7770;52.158;5.372;2023-05-14T11:52:55;9.60;;;8.40;;
15340;SDS011;7770;52.158;5.372;2023-05-14T11:55:41;10.57;;;9.27;;
15340;SDS011;7770;52.158;5.372;2023-05-14T11:58:30;12.75;;;8.70;;
15340;SDS011;7770;52.158;5.372;2023-05-14T12:01:18;10.18;;;8.38;;
15340;SDS011;7770;52.158;5.372;2023-05-14T12:04:04;8.75;;;7.85;;
15340;SDS011;7770;52.158;5.372;2023-05-14T12:06:51;10.57;;;8.50;;
15340;SDS011;7770;52.158;5.372;2023-05-14T12:09:39;10.05;;;8.45;;
15340;SDS011;7770;52.158;5.372;2023-05-14T12:12:34;10.65;;;8.48;;
15340;SDS011;7770;52.158;5.372;2023-05-14T12:15:21;11.00;;;8.45;;
15340;SDS011;7770;52.158;5.372;2023-05-14T12:18:08;14.88;;;9.30;;
15340;SDS011;7770;52.158;5.372;2023-05-14T12:20:54;10.10;;;9.10;;
15340;SDS011;7770;52.158;5.372;2023-05-14T12:23:40;10.45;;;9.13;;
15340;SDS011;7770;52.158;5.372;2023-05-14T12:26:26;12.60;;;9.60;;
15340;SDS011;7770;52.158;5.372;2023-05-14T12:29:13;10.80;;;9.63;;
15340;SDS011;7770;52.158;5.372;2023-05-14T12:32:00;11.23;;;9.35;;
15340;SDS011;7770;52.158;5.372;2023-05-14T12:34:48;10.88;;;9.40;;
15340;SDS011;7770;52.158;5.372;2023-05-14T12:37:34;13.13;;;8.65;;
15340;SDS011;7770;52.158;5.372;2023-05-14T12:40:23;12.88;;;9.52;;
15340;SDS011;7770;52.158;5.372;2023-05-14T12:43:09;15.00;;;10.30;;
15340;SDS011;7770;52.158;5.372;2023-05-14T12:45:55;12.23;;;10.32;;
15340;SDS011;7770;52.158;5.372;2023-05-14T12:48:41;11.00;;;9.98;;
15340;SDS011;7770;52.158;5.372;2023-05-14T12:51:27;13.20;;;10.60;;
15340;SDS011;7770;52.158;5.372;2023-05-14T12:54:14;13.25;;;10.65;;
15340;SDS011;7770;52.158;5.372;2023-05-14T12:57:00;12.30;;;9.85;;
15340;SDS011;7770;52.158;5.372;2023-05-14T12:59:46;13.35;;;9.85;;
15340;SDS011;7770;52.158;5.372;2023-05-14T13:02:32;13.32;;;10.07;;
15340;SDS011;7770;52.158;5.372;2023-05-14T13:05:19;14.77;;;10.50;;
15340;SDS011;7770;52.158;5.372;2023-05-14T13:08:05;14.25;;;10.80;;
15340;SDS011;7770;52.158;5.372;2023-05-14T13:10:51;12.57;;;10.43;;
15340;SDS011;7770;52.158;5.372;2023-05-14T13:13:38;10.93;;;9.82;;
15340;SDS011;7770;52.158;5.372;2023-05-14T13:16:25;11.13;;;9.98;;
15340;SDS011;7770;52.158;5.372;2023-05-14T13:19:11;13.30;;;10.75;;
15340;SDS011;7770;52.158;5.372;2023-05-14T13:21:57;12.57;;;11.20;;
15340;SDS011;7770;52.158;5.372;2023-05-14T13:24:43;11.43;;;10.15;;
15340;SDS011;7770;52.158;5.372;2023-05-14T13:27:29;12.80;;;10.18;;
15340;SDS011;7770;52.158;5.372;2023-05-14T13:30:19;10.98;;;9.88;;
15340;SDS011;7770;52.158;5.372;2023-05-14T13:33:05;11.60;;;9.82;;
15340;SDS011;7770;52.158;5.372;2023-05-14T13:35:51;13.65;;;10.13;;
15340;SDS011;7770;52.158;5.372;2023-05-14T13:38:37;10.88;;;9.50;;
15340;SDS011;7770;52.158;5.372;2023-05-14T13:41:24;10.38;;;9.35;;
15340;SDS011;7770;52.158;5.372;2023-05-14T13:44:10;12.15;;;9.70;;
15340;SDS011;7770;52.158;5.372;2023-05-14T13:46:56;14.00;;;9.95;;
15340;SDS011;7770;52.158;5.372;2023-05-14T13:49:42;13.18;;;10.80;;
15340;SDS011;7770;52.158;5.372;2023-05-14T13:52:28;11.98;;;9.70;;
15340;SDS011;7770;52.158;5.372;2023-05-14T13:55:14;13.48;;;10.10;;
15340;SDS011;7770;52.158;5.372;2023-05-14T13:58:01;11.98;;;9.70;;
15340;SDS011;7770;52.158;5.372;2023-05-14T14:00:48;13.27;;;9.40;;
15340;SDS011;7770;52.158;5.372;2023-05-14T14:03:34;10.20;;;8.83;;
15340;SDS011;7770;52.158;5.372;2023-05-14T14:06:20;10.07;;;8.53;;
15340;SDS011;7770;52.158;5.372;2023-05-14T14:09:06;12.53;;;8.97;;
15340;SDS011;7770;52.158;5.372;2023-05-14T14:11:52;11.83;;;9.20;;
15340;SDS011;7770;52.158;5.372;2023-05-14T14:14:38;10.70;;;9.10;;
15340;SDS011;7770;52.158;5.372;2023-05-14T14:17:24;10.37;;;9.20;;
15340;SDS011;7770;52.158;5.372;2023-05-14T14:20:10;12.30;;;9.03;;
15340;SDS011;7770;52.158;5.372;2023-05-14T14:22:57;11.27;;;9.20;;
15340;SDS011;7770;52.158;5.372;2023-05-14T14:25:43;12.00;;;9.93;;
15340;SDS011;7770;52.158;5.372;2023-05-14T14:28:29;11.33;;;8.97;;
15340;SDS011;7770;52.158;5.372;2023-05-14T14:31:15;11.43;;;9.23;;
15340;SDS011;7770;52.158;5.372;2023-05-14T14:34:01;13.07;;;9.77;;
15340;SDS011;7770;52.158;5.372;2023-05-14T14:36:47;12.57;;;9.40;;
15340;SDS011;7770;52.158;5.372;2023-05-14T14:39:33;11.07;;;8.80;;
15340;SDS011;7770;52.158;5.372;2023-05-14T14:42:19;11.10;;;8.97;;
15340;SDS011;7770;52.158;5.372;2023-05-14T14:45:06;10.37;;;8.60;;
15340;SDS011;7770;52.158;5.372;2023-05-14T14:48:20;10.47;;;9.40;;
15340;SDS011;7770;52.158;5.372;2023-05-14T14:51:18;13.13;;;10.23;;
15340;SDS011;7770;52.158;5.372;2023-05-14T14:54:04;12.00;;;9.67;;
15340;SDS011;7770;52.158;5.372;2023-05-14T14:56:50;11.67;;;9.93;;
15340;SDS011;7770;52.158;5.372;2023-05-14T14:59:37;14.23;;;9.30;;
15340;SDS011;7770;52.158;5.372;2023-05-14T15:02:23;11.00;;;9.77;;
15340;SDS011;7770;52.158;5.372;2023-05-14T15:05:09;12.50;;;9.03;;
15340;SDS011;7770;52.158;5.372;2023-05-14T15:07:55;12.43;;;9.10;;
15340;SDS011;7770;52.158;5.372;2023-05-14T15:10:41;11.80;;;10.23;;
15340;SDS011;7770;52.158;5.372;2023-05-14T15:13:29;11.93;;;10.73;;
15340;SDS011;7770;52.158;5.372;2023-05-14T15:16:15;11.83;;;9.63;;
15340;SDS011;7770;52.158;5.372;2023-05-14T15:19:01;14.53;;;10.03;;
15340;SDS011;7770;52.158;5.372;2023-05-14T15:21:47;11.17;;;9.93;;
15340;SDS011;7770;52.158;5.372;2023-05-14T15:24:33;12.13;;;10.67;;
15340;SDS011;7770;52.158;5.372;2023-05-14T15:27:19;12.67;;;10.17;;
15340;SDS011;7770;52.158;5.372;2023-05-14T15:30:05;11.60;;;10.37;;
15340;SDS011;7770;52.158;5.372;2023-05-14T15:32:52;10.83;;;9.70;;
15340;SDS011;7770;52.158;5.372;2023-05-14T15:35:38;13.27;;;10.33;;
15340;SDS011;7770;52.158;5.372;2023-05-14T15:38:24;14.13;;;10.73;;
15340;SDS011;7770;52.158;5.372;2023-05-14T15:41:10;12.93;;;10.40;;
15340;SDS011;7770;52.158;5.372;2023-05-14T15:43:56;14.17;;;10.23;;
15340;SDS011;7770;52.158;5.372;2023-05-14T15:46:42;14.53;;;11.83;;
15340;SDS011;7770;52.158;5.372;2023-05-14T15:49:28;14.70;;;10.93;;
15340;SDS011;7770;52.158;5.372;2023-05-14T15:52:14;13.27;;;11.07;;
15340;SDS011;7770;52.158;5.372;2023-05-14T15:55:01;13.77;;;10.40;;
15340;SDS011;7770;52.158;5.372;2023-05-14T15:57:48;12.47;;;10.47;;
15340;SDS011;7770;52.158;5.372;2023-05-14T16:00:34;13.87;;;10.83;;
15340;SDS011;7770;52.158;5.372;2023-05-14T16:03:20;15.13;;;10.93;;
15340;SDS011;7770;52.158;5.372;2023-05-14T16:06:06;13.63;;;11.23;;
15340;SDS011;7770;52.158;5.372;2023-05-14T16:08:52;14.77;;;11.23;;
15340;SDS011;7770;52.158;5.372;2023-05-14T16:11:38;15.73;;;11.30;;
15340;SDS011;7770;52.158;5.372;2023-05-14T16:14:24;14.60;;;10.77;;
15340;SDS011;7770;52.158;5.372;2023-05-14T16:17:10;12.97;;;10.40;;
15340;SDS011;7770;52.158;5.372;2023-05-14T16:19:58;13.97;;;10.47;;
15340;SDS011;7770;52.158;5.372;2023-05-14T16:22:45;11.63;;;9.93;;
15340;SDS011;7770;52.158;5.372;2023-05-14T16:25:31;14.07;;;10.77;;
15340;SDS011;7770;52.158;5.372;2023-05-14T16:28:17;14.47;;;10.07;;
15340;SDS011;7770;52.158;5.372;2023-05-14T16:31:03;10.90;;;9.90;;
15340;SDS011;7770;52.158;5.372;2023-05-14T16:33:49;11.70;;;9.53;;
15340;SDS011;7770;52.158;5.372;2023-05-14T16:36:35;12.13;;;9.20;;
15340;SDS011;7770;52.158;5.372;2023-05-14T16:39:21;13.00;;;9.47;;
15340;SDS011;7770;52.158;5.372;2023-05-14T16:42:07;13.40;;;9.70;;